createdAt,value
2023-04-14T00:02:16.006Z,3.83
2023-04-14T00:04:43.880Z,3.53
2023-04-14T00:07:13.138Z,3.83
2023-04-14T00:09:42.005Z,3.87
2023-04-14T00:12:09.718Z,3.97
2023-04-14T00:14:37.429Z,3.60
2023-04-14T00:17:05.171Z,4.10
2023-04-14T00:19:34.295Z,3.40
2023-04-14T00:22:02.131Z,3.43
2023-04-14T00:24:29.878Z,4.00
2023-04-14T00:26:57.974Z,3.37
2023-04-14T00:29:25.869Z,3.63
2023-04-14T00:31:53.576Z,3.97
2023-04-14T00:34:21.285Z,4.00
2023-04-14T00:36:50.370Z,4.47
2023-04-14T00:39:18.119Z,3.70
2023-04-14T00:41:45.963Z,4.00
2023-04-14T00:44:13.910Z,3.47
2023-04-14T00:46:42.813Z,4.47
2023-04-14T00:49:11.296Z,3.30
2023-04-14T00:51:39.291Z,3.70
2023-04-14T00:54:09.656Z,3.80
2023-04-14T00:56:37.501Z,3.60
2023-04-14T00:59:07.539Z,4.20
2023-04-14T01:01:36.635Z,3.63
2023-04-14T01:04:04.634Z,3.80
2023-04-14T01:06:33.068Z,3.67
2023-04-14T01:09:01.833Z,3.77
2023-04-14T01:11:38.285Z,3.90
2023-04-14T01:14:12.578Z,3.87
2023-04-14T01:16:42.728Z,3.93
2023-04-14T01:19:31.859Z,4.17
2023-04-14T01:22:04.625Z,3.77
2023-04-14T01:24:41.925Z,4.23
2023-04-14T01:27:32.017Z,4.13
2023-04-14T01:30:19.678Z,3.80
2023-04-14T01:32:50.838Z,5.00
2023-04-14T01:35:22.012Z,4.57
2023-04-14T01:37:55.549Z,5.00
2023-04-14T01:40:25.983Z,4.43
2023-04-14T01:42:59.462Z,4.77
2023-04-14T01:45:30.005Z,4.53
2023-04-14T01:48:00.518Z,4.40
2023-04-14T01:50:29.596Z,4.90
2023-04-14T01:52:59.132Z,5.50
2023-04-14T01:55:29.650Z,5.93
2023-04-14T01:57:58.587Z,5.37
2023-04-14T02:00:27.204Z,5.60
2023-04-14T02:02:56.428Z,4.67
2023-04-14T02:05:27.697Z,4.07
2023-04-14T02:07:56.604Z,4.80
2023-04-14T02:10:25.833Z,5.23
2023-04-14T02:12:58.198Z,5.17
2023-04-14T02:15:28.566Z,4.30
2023-04-14T02:17:58.247Z,3.97
2023-04-14T02:20:29.035Z,4.50
2023-04-14T02:22:56.894Z,4.87
2023-04-14T02:25:27.363Z,4.77
2023-04-14T02:27:57.397Z,4.67
2023-04-14T02:30:30.483Z,4.67
2023-04-14T02:33:02.966Z,4.67
2023-04-14T02:35:38.437Z,4.53
2023-04-14T02:38:09.447Z,5.60
2023-04-14T02:40:42.197Z,6.13
2023-04-14T02:43:14.471Z,6.23
2023-04-14T02:45:46.989Z,5.97
2023-04-14T02:48:17.437Z,6.03
2023-04-14T02:50:49.312Z,6.20
2023-04-14T02:53:21.622Z,5.87
2023-04-14T02:55:51.452Z,5.53
2023-04-14T02:58:19.466Z,5.97
2023-04-14T03:00:48.016Z,5.13
2023-04-14T03:03:17.025Z,5.63
2023-04-14T03:05:48.629Z,5.07
2023-04-14T03:08:18.011Z,5.00
2023-04-14T03:10:47.233Z,5.17
2023-04-14T03:13:16.398Z,4.80
2023-04-14T03:15:46.548Z,5.00
2023-04-14T03:18:15.780Z,4.50
2023-04-14T03:20:45.753Z,5.07
2023-04-14T03:23:18.926Z,5.27
2023-04-14T03:25:48.784Z,5.60
2023-04-14T03:28:20.316Z,5.30
2023-04-14T03:30:54.204Z,5.10
2023-04-14T03:33:25.984Z,5.20
2023-04-14T03:35:57.089Z,10.10
2023-04-14T03:38:28.213Z,8.80
2023-04-14T03:41:01.100Z,4.70
2023-04-14T03:43:29.363Z,5.70
2023-04-14T03:45:57.551Z,5.40
2023-04-14T03:48:27.347Z,5.87
2023-04-14T03:50:57.778Z,5.70
2023-04-14T03:53:27.989Z,5.00
2023-04-14T03:55:59.806Z,5.70
2023-04-14T03:58:29.573Z,5.73
2023-04-14T04:00:58.461Z,6.13
2023-04-14T04:03:27.865Z,6.10
2023-04-14T04:05:56.057Z,6.17
2023-04-14T04:08:24.771Z,6.00
2023-04-14T04:10:56.071Z,5.93
2023-04-14T04:13:25.299Z,6.23
2023-04-14T04:15:53.690Z,6.70
2023-04-14T04:18:23.740Z,40.73
2023-04-14T04:20:51.828Z,37.03
2023-04-14T04:23:22.740Z,15.77
2023-04-14T04:25:51.152Z,7.53
2023-04-14T04:28:20.649Z,7.50
2023-04-14T04:30:49.933Z,6.07
2023-04-14T04:33:18.565Z,7.50
2023-04-14T04:35:47.843Z,7.63
2023-04-14T04:38:15.635Z,9.53
2023-04-14T04:40:43.390Z,8.47
2023-04-14T04:43:11.110Z,8.97
2023-04-14T04:45:51.183Z,8.63
2023-04-14T04:48:18.876Z,9.17
2023-04-14T04:50:46.563Z,10.07
2023-04-14T04:53:14.291Z,10.03
2023-04-14T04:55:42.277Z,9.40
2023-04-14T04:58:10.462Z,9.23
2023-04-14T05:00:38.169Z,10.60
2023-04-14T05:03:07.313Z,10.70
2023-04-14T05:05:37.105Z,10.47
2023-04-14T05:08:05.146Z,11.80
2023-04-14T05:10:35.342Z,11.40
2023-04-14T05:13:03.634Z,11.17
2023-04-14T05:15:31.843Z,11.77
2023-04-14T05:18:01.616Z,11.27
2023-04-14T05:20:32.153Z,11.23
2023-04-14T05:23:00.740Z,12.03
2023-04-14T05:25:28.478Z,11.30
2023-04-14T05:27:56.260Z,12.70
2023-04-14T05:30:24.573Z,11.67
2023-04-14T05:32:52.284Z,13.77
2023-04-14T05:35:20.019Z,13.00
2023-04-14T05:37:49.084Z,14.03
2023-04-14T05:40:16.801Z,13.80
2023-04-14T05:42:44.510Z,14.07
2023-04-14T05:45:12.571Z,13.80
2023-04-14T05:47:40.778Z,13.77
2023-04-14T05:50:09.461Z,14.70
2023-04-14T05:52:37.154Z,14.87
2023-04-14T05:55:07.118Z,13.53
2023-04-14T05:57:35.011Z,13.13
2023-04-14T06:00:02.830Z,12.77
2023-04-14T06:02:30.684Z,14.00
2023-04-14T06:04:59.772Z,13.03
2023-04-14T06:07:27.640Z,12.87
2023-04-14T06:09:55.704Z,13.53
2023-04-14T06:12:24.778Z,13.30
2023-04-14T06:14:52.563Z,14.17
2023-04-14T06:17:21.142Z,13.93
2023-04-14T06:19:49.167Z,13.67
2023-04-14T06:22:19.783Z,13.97
2023-04-14T06:24:47.612Z,14.33
2023-04-14T06:27:15.791Z,14.23
2023-04-14T06:29:44.852Z,18.60
2023-04-14T06:32:12.738Z,18.70
2023-04-14T06:34:40.635Z,14.57
2023-04-14T06:37:08.354Z,14.07
2023-04-14T06:39:36.309Z,13.90
2023-04-14T06:42:04.060Z,13.63
2023-04-14T06:44:31.770Z,14.30
2023-04-14T06:47:00.846Z,13.60
2023-04-14T06:49:29.398Z,13.47
2023-04-14T06:51:57.153Z,13.03
2023-04-14T06:54:24.990Z,13.77
2023-04-14T06:56:52.739Z,13.60
2023-04-14T06:59:21.165Z,13.83
2023-04-14T07:01:48.997Z,13.33
2023-04-14T07:04:19.296Z,14.73
2023-04-14T07:06:47.145Z,14.67
2023-04-14T07:09:14.966Z,14.47
2023-04-14T07:11:42.795Z,13.93
2023-04-14T07:14:10.506Z,10.23
2023-04-14T07:16:38.191Z,14.63
2023-04-14T07:19:05.909Z,14.60
2023-04-14T07:21:35.035Z,13.53
2023-04-14T07:24:02.965Z,14.00
2023-04-14T07:26:30.911Z,14.23
2023-04-14T07:28:58.639Z,13.13
2023-04-14T07:31:26.673Z,13.63
2023-04-14T07:33:54.436Z,13.23
2023-04-14T07:36:22.217Z,13.67
2023-04-14T07:38:52.091Z,12.57
2023-04-14T07:41:21.197Z,13.40
2023-04-14T07:43:48.915Z,13.57
2023-04-14T07:46:16.692Z,12.90
2023-04-14T07:48:44.617Z,14.30
2023-04-14T07:51:12.566Z,13.83
2023-04-14T07:53:43.244Z,13.23
2023-04-14T07:56:12.786Z,13.00
2023-04-14T07:58:40.710Z,13.13
2023-04-14T08:01:08.911Z,13.37
2023-04-14T08:03:37.895Z,13.33
2023-04-14T08:06:06.879Z,13.93
2023-04-14T08:08:34.701Z,13.73
2023-04-14T08:11:02.492Z,13.60
2023-04-14T08:13:31.606Z,13.50
2023-04-14T08:15:59.375Z,13.53
2023-04-14T08:18:27.421Z,14.07
2023-04-14T08:20:55.114Z,15.17
2023-04-14T08:23:22.911Z,14.27
2023-04-14T08:25:50.713Z,13.37
2023-04-14T08:28:18.430Z,13.20
2023-04-14T08:30:47.744Z,13.67
2023-04-14T08:33:15.858Z,14.20
2023-04-14T08:35:44.027Z,13.07
2023-04-14T08:38:12.067Z,14.20
2023-04-14T08:40:41.529Z,13.80
2023-04-14T08:43:09.452Z,13.63
2023-04-14T08:45:37.862Z,13.40
2023-04-14T08:48:07.147Z,13.53
2023-04-14T08:50:38.450Z,13.87
2023-04-14T08:53:10.791Z,13.30
2023-04-14T08:55:41.711Z,13.97
2023-04-14T08:58:11.430Z,13.73
2023-04-14T09:00:40.052Z,13.60
2023-04-14T09:03:10.040Z,13.90
2023-04-14T09:05:38.456Z,13.53
2023-04-14T09:08:06.286Z,15.53
2023-04-14T09:10:35.694Z,15.07
2023-04-14T09:13:05.509Z,14.33
2023-04-14T09:15:33.404Z,14.53
2023-04-14T09:18:01.293Z,13.83
2023-04-14T09:20:40.346Z,13.70
2023-04-14T09:23:10.087Z,14.20
2023-04-14T09:25:39.611Z,14.47
2023-04-14T09:28:07.461Z,14.80
2023-04-14T09:30:35.339Z,14.47
2023-04-14T09:33:05.948Z,13.80
2023-04-14T09:35:47.359Z,14.80
2023-04-14T09:38:15.355Z,14.47
2023-04-14T09:40:44.217Z,16.53
2023-04-14T09:43:25.255Z,15.13
2023-04-14T09:45:53.129Z,15.37
2023-04-14T09:48:21.267Z,15.10
2023-04-14T09:51:00.929Z,16.27
2023-04-14T09:53:30.300Z,16.53
2023-04-14T09:55:59.753Z,16.47
2023-04-14T09:58:31.595Z,16.37
2023-04-14T10:01:00.495Z,17.67
2023-04-14T10:03:36.067Z,16.63
2023-04-14T10:06:07.717Z,17.27
2023-04-14T10:08:37.692Z,17.50
2023-04-14T10:11:19.235Z,18.33
2023-04-14T10:13:47.852Z,18.57
2023-04-14T10:16:15.968Z,19.33
2023-04-14T10:18:44.193Z,18.63
2023-04-14T10:21:14.808Z,17.87
2023-04-14T10:23:43.374Z,20.07
2023-04-14T10:26:12.740Z,17.70
2023-04-14T10:28:43.273Z,18.03
2023-04-14T10:31:16.054Z,18.47
2023-04-14T10:33:44.220Z,18.23
2023-04-14T10:36:13.493Z,18.23
2023-04-14T10:38:43.494Z,18.17
2023-04-14T10:41:12.886Z,16.40
2023-04-14T10:43:41.714Z,18.47
2023-04-14T10:46:11.080Z,19.43
2023-04-14T10:48:41.329Z,18.97
2023-04-14T10:51:10.788Z,18.80
2023-04-14T10:53:47.490Z,19.67
2023-04-14T10:56:15.333Z,20.43
2023-04-14T10:58:54.664Z,20.33
2023-04-14T11:01:24.117Z,19.53
2023-04-14T11:03:52.037Z,21.73
2023-04-14T11:06:52.813Z,20.03
2023-04-14T11:09:34.501Z,20.17
2023-04-14T11:12:07.389Z,21.17
2023-04-14T11:14:36.985Z,20.03
2023-04-14T11:17:05.953Z,18.67
2023-04-14T11:19:34.311Z,18.77
2023-04-14T11:22:02.041Z,19.70
2023-04-14T11:24:32.274Z,19.87
2023-04-14T11:27:00.159Z,18.97
2023-04-14T11:29:27.995Z,19.23
2023-04-14T11:32:02.862Z,19.77
2023-04-14T11:34:30.729Z,20.20
2023-04-14T11:36:58.518Z,19.10
2023-04-14T11:39:26.432Z,18.43
2023-04-14T11:41:56.044Z,19.03
2023-04-14T11:44:23.861Z,19.10
2023-04-14T11:46:51.651Z,19.03
2023-04-14T11:49:20.626Z,19.90
2023-04-14T11:51:49.918Z,19.07
2023-04-14T11:54:18.539Z,14.27
2023-04-14T11:56:46.418Z,10.27
2023-04-14T11:59:15.489Z,8.63
2023-04-14T12:01:43.354Z,8.13
2023-04-14T12:04:12.402Z,9.90
2023-04-14T12:06:40.685Z,7.87
2023-04-14T12:09:10.125Z,8.80
2023-04-14T12:11:38.161Z,8.43
2023-04-14T12:14:06.155Z,7.93
2023-04-14T12:16:35.491Z,8.83
2023-04-14T12:19:03.591Z,9.20
2023-04-14T12:21:31.864Z,9.67
2023-04-14T12:23:59.620Z,9.73
2023-04-14T12:26:28.235Z,11.83
2023-04-14T12:28:59.062Z,11.53
2023-04-14T12:31:31.168Z,10.77
2023-04-14T12:34:05.357Z,11.60
2023-04-14T12:36:48.896Z,11.77
2023-04-14T12:39:18.179Z,12.60
2023-04-14T12:41:46.912Z,11.47
2023-04-14T12:44:16.529Z,11.83
2023-04-14T12:46:49.857Z,11.20
2023-04-14T12:49:42.839Z,9.53
2023-04-14T12:52:10.550Z,7.97
2023-04-14T12:54:52.222Z,9.03
2023-04-14T12:57:21.747Z,8.23
2023-04-14T12:59:49.425Z,8.10
2023-04-14T13:02:17.928Z,8.60
2023-04-14T13:04:47.145Z,9.03
2023-04-14T13:07:14.926Z,9.63
2023-04-14T13:09:43.653Z,8.43
2023-04-14T13:12:11.397Z,7.73
2023-04-14T13:14:39.437Z,7.23
2023-04-14T13:17:07.348Z,6.70
2023-04-14T13:19:35.101Z,7.17
2023-04-14T13:22:04.163Z,6.07
2023-04-14T13:24:31.888Z,5.13
2023-04-14T13:26:59.605Z,5.30
2023-04-14T13:29:27.376Z,4.70
2023-04-14T13:31:55.092Z,4.40
2023-04-14T13:34:22.836Z,4.90
2023-04-14T13:36:50.657Z,8.80
2023-04-14T13:39:20.220Z,5.17
2023-04-14T13:41:47.951Z,5.60
2023-04-14T13:44:15.707Z,6.37
2023-04-14T13:46:44.712Z,5.67
2023-04-14T13:49:12.883Z,6.73
2023-04-14T13:51:40.991Z,6.00
2023-04-14T13:54:08.707Z,5.63
2023-04-14T13:56:37.812Z,6.80
2023-04-14T13:59:05.670Z,7.63
2023-04-14T14:01:33.994Z,8.00
2023-04-14T14:04:01.994Z,8.20
2023-04-14T14:06:29.967Z,8.33
2023-04-14T14:09:05.286Z,7.50
2023-04-14T14:11:34.459Z,6.90
2023-04-14T14:14:04.019Z,7.03
2023-04-14T14:16:37.126Z,6.63
2023-04-14T14:19:07.295Z,6.83
2023-04-14T14:21:35.709Z,6.47
2023-04-14T14:24:03.997Z,6.20
2023-04-14T14:26:31.978Z,6.27
2023-04-14T14:28:59.729Z,6.33
2023-04-14T14:31:29.068Z,5.37
2023-04-14T14:33:57.601Z,6.03
2023-04-14T14:36:26.680Z,6.83
2023-04-14T14:38:54.412Z,7.17
2023-04-14T14:41:22.431Z,7.27
2023-04-14T14:43:51.063Z,7.00
2023-04-14T14:46:18.965Z,8.70
2023-04-14T14:48:48.138Z,6.20
2023-04-14T14:51:15.964Z,6.83
2023-04-14T14:53:43.647Z,7.27
2023-04-14T14:56:11.621Z,6.97
2023-04-14T14:58:39.551Z,6.30
2023-04-14T15:01:07.698Z,6.10
2023-04-14T15:03:35.741Z,7.13
2023-04-14T15:06:05.284Z,7.50
2023-04-14T15:08:33.076Z,8.50
2023-04-14T15:11:00.852Z,8.40
2023-04-14T15:13:29.412Z,8.43
2023-04-14T15:15:57.154Z,8.10
2023-04-14T15:18:24.914Z,7.60
2023-04-14T15:20:54.238Z,6.43
2023-04-14T15:23:23.372Z,7.63
2023-04-14T15:25:51.140Z,6.73
2023-04-14T15:28:18.924Z,6.30
2023-04-14T15:30:46.732Z,6.60
2023-04-14T15:33:14.449Z,7.47
2023-04-14T15:35:42.183Z,8.03
2023-04-14T15:38:09.900Z,12.47
2023-04-14T15:40:40.631Z,7.87
2023-04-14T15:43:08.349Z,7.50
2023-04-14T15:45:36.141Z,8.77
2023-04-14T15:48:04.034Z,8.37
2023-04-14T15:50:32.171Z,10.23
2023-04-14T15:52:59.854Z,10.07
2023-04-14T15:55:28.416Z,11.00
2023-04-14T15:57:57.479Z,12.23
2023-04-14T16:00:26.037Z,12.27
2023-04-14T16:02:53.812Z,10.77
2023-04-14T16:05:21.756Z,11.70
2023-04-14T16:07:49.520Z,12.47
2023-04-14T16:10:17.290Z,12.77
2023-04-14T16:12:44.997Z,12.23
2023-04-14T16:15:14.183Z,13.10
2023-04-14T16:17:42.165Z,14.10
2023-04-14T16:20:11.432Z,13.70
2023-04-14T16:22:39.276Z,13.67
2023-04-14T16:25:08.109Z,13.87
2023-04-14T16:27:35.849Z,14.90
2023-04-14T16:30:03.815Z,13.63
2023-04-14T16:32:32.901Z,14.87
2023-04-14T16:35:01.105Z,15.33
2023-04-14T16:37:28.883Z,20.00
2023-04-14T16:39:56.936Z,23.67
2023-04-14T16:42:25.259Z,106.37
2023-04-14T16:44:53.450Z,21.60
2023-04-14T16:47:22.003Z,15.77
2023-04-14T16:49:51.685Z,16.67
2023-04-14T16:52:19.800Z,16.83
2023-04-14T16:54:47.533Z,17.87
2023-04-14T16:57:15.453Z,17.43
2023-04-14T16:59:43.148Z,17.10
2023-04-14T17:02:11.188Z,17.80
2023-04-14T17:04:39.228Z,17.97
2023-04-14T17:07:08.381Z,17.23
2023-04-14T17:09:36.253Z,16.57
2023-04-14T17:12:03.967Z,19.10
2023-04-14T17:14:32.528Z,17.43
2023-04-14T17:17:00.420Z,18.40
2023-04-14T17:19:28.410Z,16.70
2023-04-14T17:21:56.176Z,18.30
2023-04-14T17:24:25.302Z,18.73
2023-04-14T17:26:53.086Z,23.90
2023-04-14T17:29:20.793Z,27.47
2023-04-14T17:31:48.614Z,18.27
2023-04-14T17:34:18.484Z,17.80
2023-04-14T17:36:47.305Z,18.80
2023-04-14T17:39:15.280Z,17.93
2023-04-14T17:41:44.630Z,19.70
2023-04-14T17:44:12.689Z,19.50
2023-04-14T17:46:40.367Z,19.23
2023-04-14T17:49:08.335Z,19.83
2023-04-14T17:51:36.145Z,19.27
2023-04-14T17:54:05.258Z,19.53
2023-04-14T17:56:33.014Z,18.93
2023-04-14T17:59:02.374Z,18.50
2023-04-14T18:01:30.128Z,17.63
2023-04-14T18:04:00.326Z,16.67
2023-04-14T18:06:28.685Z,18.67
2023-04-14T18:08:56.396Z,18.27
2023-04-14T18:11:24.489Z,17.17
2023-04-14T18:13:52.404Z,18.33
2023-04-14T18:16:22.189Z,18.23
2023-04-14T18:18:50.152Z,92.93
2023-04-14T18:21:18.688Z,37.00
2023-04-14T18:24:47.858Z,18.17
2023-04-14T18:26:34.072Z,16.57
2023-04-14T18:29:02.040Z,17.20
2023-04-14T18:31:31.523Z,17.10
2023-04-14T18:34:03.769Z,17.63
2023-04-14T18:36:32.558Z,17.27
2023-04-14T18:39:01.380Z,17.07
2023-04-14T18:41:29.475Z,18.17
2023-04-14T18:43:57.516Z,15.63
2023-04-14T18:46:25.394Z,17.03
2023-04-14T18:48:55.343Z,16.67
2023-04-14T18:51:23.092Z,16.87
2023-04-14T18:53:50.821Z,16.70
2023-04-14T18:56:18.637Z,16.57
2023-04-14T18:58:46.581Z,16.47
2023-04-14T19:01:14.328Z,14.93
2023-04-14T19:03:42.125Z,15.83
2023-04-14T19:06:11.442Z,15.60
2023-04-14T19:08:39.158Z,16.03
2023-04-14T19:11:07.542Z,16.20
2023-04-14T19:13:35.596Z,16.47
2023-04-14T19:16:08.436Z,16.77
2023-04-14T19:18:37.133Z,22.27
2023-04-14T19:21:05.033Z,75.50
2023-04-14T19:23:34.142Z,20.53
2023-04-14T19:26:02.433Z,17.93
2023-04-14T19:28:30.630Z,17.43
2023-04-14T19:30:58.332Z,16.63
2023-04-14T19:33:26.968Z,17.07
2023-04-14T19:35:54.752Z,16.80
2023-04-14T19:38:22.479Z,17.87
2023-04-14T19:40:52.816Z,17.47
2023-04-14T19:43:20.508Z,17.13
2023-04-14T19:45:52.503Z,16.67
2023-04-14T19:48:24.017Z,19.20
2023-04-14T19:50:54.506Z,18.63
2023-04-14T19:53:23.394Z,18.87
2023-04-14T19:55:53.621Z,19.10
2023-04-14T19:58:21.836Z,18.73
2023-04-14T20:00:51.598Z,19.23
2023-04-14T20:03:20.294Z,19.73
2023-04-14T20:05:51.779Z,20.47
2023-04-14T20:08:20.337Z,19.93
2023-04-14T20:10:51.153Z,19.97
2023-04-14T20:13:21.500Z,19.83
2023-04-14T20:15:49.630Z,20.27
2023-04-14T20:18:18.343Z,19.83
2023-04-14T20:20:46.976Z,22.23
2023-04-14T20:23:14.661Z,21.37
2023-04-14T20:25:44.055Z,22.07
2023-04-14T20:28:11.871Z,20.93
2023-04-14T20:30:41.713Z,21.13
2023-04-14T20:33:09.453Z,21.47
2023-04-14T20:35:39.297Z,21.40
2023-04-14T20:38:07.506Z,18.10
2023-04-14T20:40:35.434Z,21.00
2023-04-14T20:43:03.741Z,22.77
2023-04-14T20:45:32.142Z,24.40
2023-04-14T20:48:02.008Z,23.33
2023-04-14T20:50:30.055Z,23.83
2023-04-14T20:52:57.760Z,24.97
2023-04-14T20:55:26.167Z,24.50
2023-04-14T20:57:54.479Z,23.30
2023-04-14T21:00:22.203Z,23.33
2023-04-14T21:02:51.833Z,24.00
2023-04-14T21:05:21.968Z,24.43
2023-04-14T21:07:49.707Z,23.67
2023-04-14T21:10:17.442Z,23.83
2023-04-14T21:14:54.143Z,24.23
2023-04-14T21:15:53.036Z,24.80
2023-04-14T21:18:21.711Z,24.33
2023-04-14T21:20:50.815Z,24.73
2023-04-14T21:23:18.891Z,25.27
2023-04-14T21:25:46.859Z,25.23
2023-04-14T21:28:14.676Z,25.33
2023-04-14T21:30:42.552Z,25.47
2023-04-14T21:33:10.802Z,27.20
2023-04-14T21:35:38.713Z,28.50
2023-04-14T21:38:08.057Z,27.80
2023-04-14T21:40:35.840Z,28.67
2023-04-14T21:43:03.527Z,29.50
2023-04-14T21:45:31.336Z,29.63
2023-04-14T21:47:59.126Z,30.17
2023-04-14T21:50:26.908Z,30.37
2023-04-14T21:52:54.663Z,30.53
2023-04-14T21:55:23.767Z,31.10
2023-04-14T21:57:52.428Z,31.93
2023-04-14T22:00:20.546Z,32.17
2023-04-14T22:02:49.623Z,34.20
2023-04-14T22:05:17.570Z,34.27
2023-04-14T22:07:46.375Z,35.00
2023-04-14T22:10:14.643Z,35.20
2023-04-14T22:12:44.672Z,36.27
2023-04-14T22:15:12.502Z,36.40
2023-04-14T22:17:40.226Z,36.63
2023-04-14T22:20:09.635Z,37.20
2023-04-14T22:22:37.466Z,36.83
2023-04-14T22:25:05.733Z,36.07
2023-04-14T22:27:34.440Z,36.97
2023-04-14T22:30:04.947Z,36.13
2023-04-14T22:32:33.184Z,33.73
2023-04-14T22:35:01.969Z,35.83
2023-04-14T22:37:29.673Z,33.57
2023-04-14T22:39:57.711Z,33.63
2023-04-14T22:42:26.048Z,34.37
2023-04-14T22:44:54.362Z,35.67
2023-04-14T22:47:23.563Z,35.73
2023-04-14T22:49:51.762Z,36.13
2023-04-14T22:52:19.821Z,32.50
2023-04-14T22:54:48.647Z,35.07
2023-04-14T22:57:16.492Z,35.83
2023-04-14T22:59:44.187Z,33.63
2023-04-14T23:02:12.697Z,35.23
2023-04-14T23:04:42.133Z,35.20
2023-04-14T23:07:09.946Z,34.90
2023-04-14T23:09:37.688Z,34.17
2023-04-14T23:12:06.233Z,35.07
2023-04-14T23:14:33.985Z,35.47
2023-04-14T23:17:01.789Z,34.13
2023-04-14T23:19:29.517Z,35.47
2023-04-14T23:21:58.620Z,35.10
2023-04-14T23:24:26.743Z,34.60
2023-04-14T23:26:54.461Z,35.67
2023-04-14T23:29:22.188Z,32.93
2023-04-14T23:31:50.041Z,32.90
2023-04-14T23:34:17.793Z,34.27
2023-04-14T23:36:47.264Z,31.83
2023-04-14T23:39:16.349Z,32.57
2023-04-14T23:41:44.047Z,32.40
2023-04-14T23:44:11.728Z,32.60
2023-04-14T23:46:40.681Z,32.63
2023-04-14T23:49:23.562Z,34.00
2023-04-14T23:51:52.772Z,31.90
2023-04-14T23:54:21.866Z,32.37
2023-04-14T23:56:49.591Z,27.10
2023-04-14T23:59:17.671Z,30.50
